»·PEaware :: N47332 KPSC-KGEG

N47332 :: KPSC-KGEG

FLIGHT INFORMATION

Flight Status: Arrived
Operator: Privately registered:
United States
More flights under this callsign
Pilot: Sergei F. (8485)
Aircraft: CESSNA 172 SKYHAWK
(C172)
More flights by this aircraft type
Origin: KPSC Tri-Cities
United States
Destination: KGEG Spokane Intl
United States
More flights between these airports :: More routes between these airports
Route: PSC V204 GEG
File this flight plan on PilotEdge
Remarks:
Altitude:
(Current/Filed)
7,000ft
Speed:
(Current/Filed)
100kts
Departed: 12-Jan-18 07:57 PM
Arrived: 12-Jan-18 09:12 PM
Distance/Time
Traveled:
104nm/1:15
Distance/Time
To Go:
Arrived

Flight Plot

Page will automatically refresh every two minutes.

Flight plan parsing failed; only flown route is shown


Map Options




Map Legend


Flown Route
Filed Route
Departure Airport
Arrival Airport
Navaid (VOR, NDB)
Fix

Horizontal Profiles

Position Reports

Time Latitude Longitude Heading Altitude Ground
Speed
12-Jan-18 19:45 46.263225 -119.104620 303 410ft 0kts
12-Jan-18 19:46 46.263225 -119.104620 303 410ft 0kts
12-Jan-18 19:47 46.263225 -119.104620 303 410ft 0kts
12-Jan-18 19:48 46.263225 -119.104620 303 410ft 0kts
12-Jan-18 19:49 46.263225 -119.104620 303 410ft 0kts
12-Jan-18 19:50 46.263225 -119.104620 303 410ft 0kts
12-Jan-18 19:51 46.263225 -119.104620 303 410ft 0kts
12-Jan-18 19:52 46.263225 -119.104620 303 410ft 0kts
12-Jan-18 19:53 46.263225 -119.104620 303 410ft 0kts
12-Jan-18 19:54 46.263225 -119.104620 303 410ft 0kts
12-Jan-18 19:55 46.263057 -119.105316 229 410ft 0kts
12-Jan-18 19:56 46.262992 -119.105412 223 410ft 0kts
12-Jan-18 19:57 46.261867 -119.105152 158 410ft 2kts
12-Jan-18 19:58 46.260450 -119.105303 159 407ft 6kts
12-Jan-18 19:59 46.259004 -119.106045 224 406ft 0kts
12-Jan-18 20:00 46.259004 -119.106045 223 406ft 0kts
12-Jan-18 20:01 46.259004 -119.106045 224 406ft 0kts
12-Jan-18 20:02 46.258568 -119.107023 306 406ft 10kts
12-Jan-18 20:03 46.267921 -119.120064 317 705ft 73kts
12-Jan-18 20:04 46.282310 -119.141810 315 1502ft 76kts
12-Jan-18 20:05 46.297670 -119.163566 315 2252ft 80kts
12-Jan-18 20:06 46.313015 -119.186714 319 2987ft 82kts
12-Jan-18 20:07 46.328730 -119.210031 313 3699ft 81kts
12-Jan-18 20:08 46.343911 -119.234131 316 4373ft 81kts
12-Jan-18 20:09 46.361244 -119.252129 21 4961ft 86kts
12-Jan-18 20:10 46.367215 -119.219131 85 5573ft 92kts
12-Jan-18 20:11 46.367079 -119.181132 85 6139ft 95kts
12-Jan-18 20:12 46.366876 -119.142004 83 6714ft 96kts
12-Jan-18 20:13 46.366304 -119.098736 82 6991ft 115kts
12-Jan-18 20:14 46.371183 -119.051890 73 7040ft 124kts
12-Jan-18 20:15 46.382386 -119.005493 40 7018ft 116kts
12-Jan-18 20:16 46.406535 -118.974742 29 6995ft 115kts
12-Jan-18 20:17 46.432818 -118.948098 28 6968ft 115kts
12-Jan-18 20:18 46.459727 -118.923757 27 6945ft 114kts
12-Jan-18 20:19 46.485049 -118.896024 29 6932ft 115kts
12-Jan-18 20:20 46.509955 -118.867440 28 6941ft 114kts
12-Jan-18 20:21 46.536319 -118.842659 19 6946ft 111kts
12-Jan-18 20:22 46.562041 -118.815992 30 6951ft 113kts
12-Jan-18 20:23 46.587119 -118.789442 25 6970ft 113kts
12-Jan-18 20:24 46.613161 -118.763789 24 7005ft 113kts
12-Jan-18 20:25 46.640292 -118.738719 30 7019ft 117kts
12-Jan-18 20:26 46.666802 -118.709835 27 7026ft 120kts
12-Jan-18 20:27 46.694148 -118.680404 31 7031ft 123kts
12-Jan-18 20:28 46.722111 -118.651010 30 7039ft 126kts
12-Jan-18 20:29 46.751023 -118.622521 29 7048ft 128kts
12-Jan-18 20:30 46.779377 -118.590657 27 6995ft 130kts
12-Jan-18 20:31 46.808435 -118.561190 30 6997ft 127kts
12-Jan-18 20:32 46.836352 -118.530016 27 6972ft 124kts
12-Jan-18 20:33 46.864447 -118.502129 25 6977ft 119kts
12-Jan-18 20:34 46.892494 -118.475158 25 6931ft 122kts
12-Jan-18 20:35 46.921889 -118.451370 21 6924ft 121kts
12-Jan-18 20:36 46.949476 -118.423839 33 6972ft 122kts
12-Jan-18 20:37 46.974974 -118.391922 35 7028ft 122kts
12-Jan-18 20:38 47.001222 -118.359648 38 7082ft 123kts
12-Jan-18 20:39 47.027603 -118.328484 34 7055ft 128kts
12-Jan-18 20:40 47.055377 -118.295662 35 7018ft 130kts
12-Jan-18 20:41 47.082077 -118.259870 47 6965ft 130kts
12-Jan-18 20:42 47.108203 -118.224857 37 6925ft 129kts
12-Jan-18 20:43 47.135705 -118.191814 38 6927ft 127kts
12-Jan-18 20:44 47.160712 -118.155402 48 6921ft 127kts
12-Jan-18 20:45 47.185300 -118.118595 38 6931ft 126kts
12-Jan-18 20:46 47.212975 -118.088030 39 6971ft 124kts
12-Jan-18 20:47 47.239538 -118.056647 34 7036ft 123kts
12-Jan-18 20:48 47.262776 -118.032438 31 7069ft 123kts
12-Jan-18 20:49 47.296463 -117.998545 32 7025ft 128kts
12-Jan-18 20:50 47.325719 -117.969081 32 7016ft 127kts
12-Jan-18 20:51 47.350028 -117.944572 32 7004ft 127kts
12-Jan-18 20:52 47.379178 -117.914981 33 6986ft 128kts
12-Jan-18 20:53 47.408350 -117.885428 31 6974ft 127kts
12-Jan-18 20:54 47.437405 -117.855662 34 6969ft 127kts
12-Jan-18 20:55 47.470849 -117.820089 35 6954ft 127kts
12-Jan-18 20:56 47.494796 -117.794952 34 6953ft 126kts
12-Jan-18 20:57 47.523559 -117.765110 32 6949ft 127kts
12-Jan-18 20:58 47.552099 -117.735821 31 6960ft 126kts
12-Jan-18 20:59 47.580815 -117.706504 32 6976ft 126kts
12-Jan-18 21:00 47.609182 -117.676670 33 6985ft 127kts
12-Jan-18 21:01 47.637419 -117.647159 33 7008ft 126kts
12-Jan-18 21:02 47.665930 -117.617759 33 7032ft 125kts
12-Jan-18 21:03 47.694253 -117.589065 35 6819ft 123kts
12-Jan-18 21:04 47.714921 -117.548869 54 6376ft 122kts
12-Jan-18 21:05 47.733626 -117.508163 53 5882ft 118kts
12-Jan-18 21:06 47.751215 -117.468557 52 5396ft 114kts
12-Jan-18 21:07 47.768053 -117.430269 52 5083ft 107kts
12-Jan-18 21:08 47.783516 -117.395319 52 4957ft 95kts
12-Jan-18 21:09 47.774802 -117.363004 143 4759ft 101kts
12-Jan-18 21:10 47.749223 -117.355217 191 4464ft 98kts
12-Jan-18 21:11 47.725789 -117.372064 228 4173ft 94kts
12-Jan-18 21:12 47.708912 -117.399314 232 3930ft 89kts
12-Jan-18 21:13 47.694056 -117.423881 230 3869ft 75kts
12-Jan-18 21:14 47.678761 -117.446418 227 3743ft 78kts
12-Jan-18 21:15 47.664173 -117.468556 227 3368ft 73kts
12-Jan-18 21:16 47.650232 -117.489963 228 2915ft 70kts
12-Jan-18 21:17 47.636715 -117.509918 231 2527ft 65kts
12-Jan-18 21:18 47.625777 -117.526452 226 2347ft 30kts
12-Jan-18 21:19 47.621680 -117.532597 213 2355ft 13kts
12-Jan-18 21:20 47.620650 -117.530736 48 2357ft 8kts
12-Jan-18 21:21 47.622877 -117.527331 45 2353ft 15kts
12-Jan-18 21:22 47.623111 -117.525289 156 2352ft 2kts
12-Jan-18 21:23 47.622917 -117.524331 276 2352ft 2kts
12-Jan-18 21:24 47.622924 -117.524511 271 2353ft 0kts

Navigation Log

Ident Type
Flight plan parsing failed, navigation log unavailable